createdAt,value
2023-08-30T00:00:06.978Z,97153.69
2023-08-30T00:02:35.001Z,97147.22
2023-08-30T00:05:02.856Z,97161.22
2023-08-30T00:07:30.412Z,97151.38
2023-08-30T00:09:58.245Z,97152.78
2023-08-30T00:12:27.250Z,97161.94
2023-08-30T00:14:54.854Z,97157.03
2023-08-30T00:17:22.463Z,97150.53
2023-08-30T00:19:50.357Z,97142.44
2023-08-30T00:22:18.246Z,97144.56
2023-08-30T00:24:46.192Z,97146.22
2023-08-30T00:27:14.111Z,97139.88
2023-08-30T00:29:43.224Z,97145.53
2023-08-30T00:32:10.871Z,97143.31
2023-08-30T00:34:38.372Z,97141.22
2023-08-30T00:37:05.919Z,97138.25
2023-08-30T00:39:33.468Z,97141.78
2023-08-30T00:42:06.027Z,97138.50
2023-08-30T00:44:33.837Z,97133.91
2023-08-30T00:47:04.237Z,97137.69
2023-08-30T00:49:32.844Z,97134.66
2023-08-30T00:52:03.403Z,97145.91
2023-08-30T00:54:31.456Z,97144.75
2023-08-30T00:56:59.701Z,97139.94
2023-08-30T00:59:28.824Z,97137.81
2023-08-30T01:01:57.384Z,97141.81
2023-08-30T01:04:26.525Z,97132.94
2023-08-30T01:06:54.202Z,97126.16
2023-08-30T01:09:22.489Z,97133.34
2023-08-30T01:11:52.797Z,97131.78
2023-08-30T01:14:24.207Z,97140.22
2023-08-30T01:16:51.975Z,97137.72
2023-08-30T01:19:47.338Z,97146.25
2023-08-30T01:22:19.868Z,97142.03
2023-08-30T01:25:06.601Z,97147.66
2023-08-30T01:27:36.025Z,97141.78
2023-08-30T01:30:04.737Z,97138.50
2023-08-30T01:32:36.070Z,97141.53
2023-08-30T01:35:05.405Z,97148.00
2023-08-30T01:37:34.926Z,97140.94
2023-08-30T01:40:05.726Z,97136.97
2023-08-30T01:42:35.743Z,97134.50
2023-08-30T01:45:06.152Z,97136.97
2023-08-30T01:47:34.885Z,97138.25
2023-08-30T01:50:04.770Z,97133.66
2023-08-30T01:52:34.033Z,97135.81
2023-08-30T01:55:04.065Z,97144.72
2023-08-30T01:57:31.673Z,97148.47
2023-08-30T02:00:00.575Z,97149.31
2023-08-30T02:02:30.860Z,97140.84
2023-08-30T02:05:00.527Z,97152.44
2023-08-30T02:07:35.738Z,97151.88
2023-08-30T02:10:08.318Z,97153.75
2023-08-30T02:12:41.938Z,97152.09
2023-08-30T02:15:14.220Z,97152.34
2023-08-30T02:17:42.001Z,97144.00
2023-08-30T02:20:10.169Z,97146.97
2023-08-30T02:22:37.742Z,97142.59
2023-08-30T02:25:05.866Z,97149.06
2023-08-30T02:27:33.471Z,97143.44
2023-08-30T02:30:01.032Z,97138.25
2023-08-30T02:32:30.052Z,97131.47
2023-08-30T02:34:58.968Z,97130.63
2023-08-30T02:37:26.682Z,97131.13
2023-08-30T02:39:54.219Z,97138.91
2023-08-30T02:42:21.733Z,97130.31
2023-08-30T02:44:49.350Z,97134.88
2023-08-30T02:47:16.944Z,97126.28
2023-08-30T02:49:46.088Z,97125.97
2023-08-30T02:52:13.682Z,97126.22
2023-08-30T02:54:41.453Z,97133.00
2023-08-30T02:57:11.991Z,97126.78
2023-08-30T02:59:39.968Z,97130.31
2023-08-30T03:02:07.623Z,97129.97
2023-08-30T03:04:36.954Z,97125.13
2023-08-30T03:07:05.971Z,97128.66
2023-08-30T03:09:33.524Z,97131.34
2023-08-30T03:12:01.093Z,97129.47
2023-08-30T03:14:28.694Z,97131.63
2023-08-30T03:16:56.299Z,97125.13
2023-08-30T03:19:23.944Z,97125.97
2023-08-30T03:21:51.617Z,97122.44
2023-08-30T03:24:20.576Z,97120.56
2023-08-30T03:26:48.089Z,97129.47
2023-08-30T03:29:15.643Z,97117.03
2023-08-30T03:31:44.303Z,97122.91
2023-08-30T03:34:12.337Z,97134.53
2023-08-30T03:36:40.300Z,97129.97
2023-08-30T03:39:07.863Z,97133.94
2023-08-30T03:41:36.807Z,97129.13
2023-08-30T03:44:04.542Z,97129.63
2023-08-30T03:46:32.067Z,97127.16
2023-08-30T03:48:59.624Z,97125.06
2023-08-30T03:51:27.183Z,97121.28
2023-08-30T03:53:55.835Z,97126.09
2023-08-30T03:56:23.376Z,97127.97
2023-08-30T03:58:52.249Z,97130.69
2023-08-30T04:01:20.031Z,97140.88
2023-08-30T04:03:47.634Z,97141.97
2023-08-30T04:06:15.260Z,97140.09
2023-08-30T04:08:42.797Z,97135.97
2023-08-30T04:11:10.314Z,97141.50
2023-08-30T04:13:37.891Z,97137.84
2023-08-30T04:16:06.856Z,97139.16
2023-08-30T04:18:34.405Z,97137.50
2023-08-30T04:21:03.305Z,97138.56
2023-08-30T04:23:30.977Z,97150.66
2023-08-30T04:25:58.519Z,97146.91
2023-08-30T04:28:27.797Z,97150.47
2023-08-30T04:30:55.672Z,97142.44
2023-08-30T04:33:24.660Z,97150.09
2023-08-30T04:35:52.876Z,97147.84
2023-08-30T04:38:20.884Z,97143.63
2023-08-30T04:40:48.748Z,97141.63
2023-08-30T04:43:16.519Z,97138.47
2023-08-30T04:45:49.513Z,97140.09
2023-08-30T04:48:17.101Z,97138.69
2023-08-30T04:50:45.956Z,97151.16
2023-08-30T04:53:13.537Z,97153.25
2023-08-30T04:55:41.090Z,97151.97
2023-08-30T04:58:08.859Z,97156.28
2023-08-30T05:00:37.198Z,97151.16
2023-08-30T05:03:05.313Z,97149.00
2023-08-30T05:05:32.920Z,97146.91
2023-08-30T05:08:01.803Z,97149.00
2023-08-30T05:10:29.398Z,97146.34
2023-08-30T05:12:57.129Z,97149.28
2023-08-30T05:15:24.680Z,97143.63
2023-08-30T05:17:52.313Z,97144.91
2023-08-30T05:20:19.872Z,97141.63
2023-08-30T05:22:47.484Z,97143.72
2023-08-30T05:25:16.383Z,97138.56
2023-08-30T05:27:44.713Z,97135.06
2023-08-30T05:30:13.657Z,97136.00
2023-08-30T05:32:41.309Z,97134.16
2023-08-30T05:35:09.775Z,97137.50
2023-08-30T05:37:37.300Z,97131.41
2023-08-30T05:40:05.738Z,97139.31
2023-08-30T05:42:34.640Z,97129.69
2023-08-30T05:45:02.151Z,97132.59
2023-08-30T05:47:29.671Z,97133.75
2023-08-30T05:49:57.711Z,97133.53
2023-08-30T05:52:26.251Z,97141.84
2023-08-30T05:54:53.921Z,97140.94
2023-08-30T05:57:23.236Z,97141.84
2023-08-30T05:59:52.395Z,97139.97
2023-08-30T06:02:19.945Z,97147.53
2023-08-30T06:04:47.558Z,97139.88
2023-08-30T06:07:15.098Z,97140.34
2023-08-30T06:09:42.622Z,97150.59
2023-08-30T06:12:10.905Z,97143.41
2023-08-30T06:14:40.843Z,97147.03
2023-08-30T06:17:09.819Z,97145.03
2023-08-30T06:19:37.358Z,97145.06
2023-08-30T06:22:05.240Z,97144.31
2023-08-30T06:24:32.775Z,97142.56
2023-08-30T06:27:00.935Z,97146.53
2023-08-30T06:29:28.560Z,97144.41
2023-08-30T06:31:56.132Z,97139.34
2023-08-30T06:34:25.127Z,97141.59
2023-08-30T06:36:52.730Z,97157.25
2023-08-30T06:39:20.604Z,97157.63
2023-08-30T06:41:48.235Z,97157.47
2023-08-30T06:44:16.725Z,97158.28
2023-08-30T06:46:44.286Z,97151.47
2023-08-30T06:49:12.513Z,97155.84
2023-08-30T06:51:41.465Z,97153.94
2023-08-30T06:54:09.153Z,97147.06
2023-08-30T06:56:36.712Z,97150.28
2023-08-30T06:59:04.343Z,97143.47
2023-08-30T07:01:33.357Z,97148.00
2023-08-30T07:04:02.139Z,97145.31
2023-08-30T07:06:31.904Z,97147.78
2023-08-30T07:09:00.765Z,97154.72
2023-08-30T07:11:33.833Z,97141.06
2023-08-30T07:14:02.662Z,97142.44
2023-08-30T07:16:30.214Z,97145.34
2023-08-30T07:18:57.763Z,97144.97
2023-08-30T07:21:25.798Z,97143.19
2023-08-30T07:23:53.356Z,97141.25
2023-08-30T07:26:22.280Z,97139.03
2023-08-30T07:28:49.848Z,97140.72
2023-08-30T07:31:19.416Z,97131.06
2023-08-30T07:33:47.120Z,97139.91
2023-08-30T07:36:14.652Z,97140.38
2023-08-30T07:38:42.208Z,97144.69
2023-08-30T07:41:11.171Z,97147.31
2023-08-30T07:43:41.358Z,97142.22
2023-08-30T07:46:09.159Z,97141.81
2023-08-30T07:48:36.745Z,97144.69
2023-08-30T07:51:05.385Z,97143.06
2023-08-30T07:53:32.980Z,97157.47
2023-08-30T07:56:00.532Z,97149.38
2023-08-30T07:58:28.079Z,97144.63
2023-08-30T08:00:57.278Z,97146.59
2023-08-30T08:03:24.951Z,97141.00
2023-08-30T08:05:52.562Z,97139.06
2023-08-30T08:08:20.703Z,97139.69
2023-08-30T08:10:48.377Z,97139.22
2023-08-30T08:13:16.287Z,97144.13
2023-08-30T08:15:44.986Z,97142.31
2023-08-30T08:18:14.048Z,97138.22
2023-08-30T08:20:41.636Z,97133.97
2023-08-30T08:23:09.402Z,97137.09
2023-08-30T08:25:37.060Z,97140.75
2023-08-30T08:28:05.101Z,97133.22
2023-08-30T08:30:32.627Z,97138.38
2023-08-30T08:33:00.896Z,97125.84
2023-08-30T08:35:29.894Z,97134.44
2023-08-30T08:37:57.522Z,97135.66
2023-08-30T08:40:41.268Z,97138.13
2023-08-30T08:43:12.630Z,97135.41
2023-08-30T08:45:40.685Z,97134.94
2023-08-30T08:48:09.492Z,97128.00
2023-08-30T08:50:39.342Z,97126.06
2023-08-30T08:53:08.291Z,97122.97
2023-08-30T08:55:37.315Z,97121.44
2023-08-30T08:58:06.264Z,97118.81
2023-08-30T09:00:33.940Z,97116.59
2023-08-30T09:03:02.428Z,97121.31
2023-08-30T09:05:31.366Z,97122.41
2023-08-30T09:08:00.288Z,97120.91
2023-08-30T09:10:27.902Z,97129.13
2023-08-30T09:12:55.433Z,97126.13
2023-08-30T09:15:23.480Z,97123.25
2023-08-30T09:17:51.465Z,97129.72
2023-08-30T09:20:21.198Z,97127.53
2023-08-30T09:22:48.730Z,97129.34
2023-08-30T09:25:26.948Z,97122.66
2023-08-30T09:27:59.225Z,97127.88
2023-08-30T09:30:27.302Z,97129.63
2023-08-30T09:32:55.001Z,97125.81
2023-08-30T09:35:22.640Z,97131.22
2023-08-30T09:37:50.221Z,97124.97
2023-08-30T09:40:21.329Z,97129.13
2023-08-30T09:42:59.451Z,97122.69
2023-08-30T09:45:35.039Z,97126.75
2023-08-30T09:48:04.337Z,97125.78
2023-08-30T09:50:35.459Z,97129.06
2023-08-30T09:53:08.337Z,97123.63
2023-08-30T09:55:36.776Z,97119.75
2023-08-30T09:58:06.412Z,97119.28
2023-08-30T10:00:34.780Z,97118.47
2023-08-30T10:03:29.141Z,97116.50
2023-08-30T10:05:51.107Z,97100.91
2023-08-30T10:08:20.039Z,97103.38
2023-08-30T10:10:47.669Z,97096.41
2023-08-30T10:13:18.115Z,97102.22
2023-08-30T10:15:51.615Z,97096.59
2023-08-30T10:18:23.571Z,97092.78
2023-08-30T10:20:55.288Z,97098.47
2023-08-30T10:23:24.452Z,97081.97
2023-08-30T10:25:54.187Z,97090.41
2023-08-30T10:28:25.252Z,97088.75
2023-08-30T10:30:53.427Z,97087.78
2023-08-30T10:33:26.772Z,97078.19
2023-08-30T10:35:56.888Z,97085.69
2023-08-30T10:38:28.869Z,97084.38
2023-08-30T10:40:57.110Z,97072.47
2023-08-30T10:43:32.494Z,97081.75
2023-08-30T10:46:02.945Z,97076.78
2023-08-30T10:48:38.022Z,97070.56
2023-08-30T10:51:08.241Z,97068.25
2023-08-30T10:53:35.847Z,97075.09
2023-08-30T10:56:11.760Z,97065.22
2023-08-30T10:58:46.961Z,97070.38
2023-08-30T11:01:14.798Z,97067.69
2023-08-30T11:03:43.871Z,97070.31
2023-08-30T11:06:15.783Z,97070.31
2023-08-30T11:08:43.811Z,97069.88
2023-08-30T11:11:13.061Z,97056.00
2023-08-30T11:13:40.583Z,97060.72
2023-08-30T11:16:09.552Z,97052.25
2023-08-30T11:18:42.489Z,97055.56
2023-08-30T11:21:10.785Z,97066.16
2023-08-30T11:23:38.389Z,97064.28
2023-08-30T11:26:06.177Z,97035.50
2023-08-30T11:28:33.882Z,97048.78
2023-08-30T11:31:01.392Z,97043.44
2023-08-30T11:33:30.263Z,97049.41
2023-08-30T11:35:58.633Z,97053.44
2023-08-30T11:38:26.281Z,97054.75
2023-08-30T11:40:53.958Z,97056.34
2023-08-30T11:43:21.543Z,97055.50
2023-08-30T11:45:49.177Z,97055.19
2023-08-30T11:48:16.923Z,97050.78
2023-08-30T11:50:48.882Z,97044.41
2023-08-30T11:53:16.954Z,97048.19
2023-08-30T11:55:44.515Z,97051.78
2023-08-30T11:58:12.182Z,97053.13
2023-08-30T12:00:41.131Z,97041.03
2023-08-30T12:03:09.020Z,97040.66
2023-08-30T12:05:37.700Z,97042.28
2023-08-30T12:08:07.010Z,97039.06
2023-08-30T12:10:35.288Z,97040.53
2023-08-30T12:13:03.129Z,97037.69
2023-08-30T12:15:35.136Z,97038.66
2023-08-30T12:18:08.372Z,97038.94
2023-08-30T12:20:36.180Z,97025.34
2023-08-30T12:23:04.490Z,97036.47
2023-08-30T12:25:34.927Z,97032.97
2023-08-30T12:28:02.469Z,97033.00
2023-08-30T12:30:29.994Z,97031.34
2023-08-30T12:33:02.853Z,97029.41
2023-08-30T12:35:30.380Z,97025.59
2023-08-30T12:37:58.020Z,97020.47
2023-08-30T12:40:25.605Z,97022.13
2023-08-30T12:42:54.453Z,97018.59
2023-08-30T12:45:21.936Z,97024.59
2023-08-30T12:47:49.800Z,97024.59
2023-08-30T12:50:17.361Z,97029.19
2023-08-30T12:52:44.854Z,97015.91
2023-08-30T12:55:13.466Z,97018.59
2023-08-30T12:57:41.215Z,97020.53
2023-08-30T13:00:11.479Z,97017.94
2023-08-30T13:02:39.099Z,97010.34
2023-08-30T13:05:07.248Z,97019.31
2023-08-30T13:07:36.083Z,97019.28
2023-08-30T13:10:03.841Z,97023.28
2023-08-30T13:12:31.433Z,97015.66
2023-08-30T13:14:59.152Z,97014.78
2023-08-30T13:17:28.090Z,97010.19
2023-08-30T13:19:56.538Z,97014.81
2023-08-30T13:22:24.100Z,97017.78
2023-08-30T13:24:51.640Z,97008.34
2023-08-30T13:27:19.629Z,97008.56
2023-08-30T13:29:47.706Z,96999.97
2023-08-30T13:32:15.345Z,97005.66
2023-08-30T13:34:46.889Z,96991.91
2023-08-30T13:37:14.587Z,96993.22
2023-08-30T13:39:42.128Z,96985.03
2023-08-30T13:42:09.985Z,96985.84
2023-08-30T13:44:38.488Z,96985.28
2023-08-30T13:47:06.400Z,96983.16
2023-08-30T13:49:34.067Z,96982.91
2023-08-30T13:52:02.915Z,96965.00
2023-08-30T13:54:30.931Z,96989.19
2023-08-30T13:56:59.696Z,96985.13
2023-08-30T13:59:29.399Z,96994.63
2023-08-30T14:01:58.386Z,96996.50
2023-08-30T14:04:26.674Z,96995.69
2023-08-30T14:06:54.287Z,96992.16
2023-08-30T14:09:23.121Z,96999.00
2023-08-30T14:11:51.200Z,97001.16
2023-08-30T14:14:18.722Z,97001.69
2023-08-30T14:16:46.394Z,97001.94
2023-08-30T14:19:13.960Z,96988.09
2023-08-30T14:21:41.559Z,97005.78
2023-08-30T14:24:09.206Z,97004.13
2023-08-30T14:26:38.123Z,97004.69
2023-08-30T14:29:05.937Z,97007.16
2023-08-30T14:31:33.561Z,97000.34
2023-08-30T14:34:01.183Z,97004.69
2023-08-30T14:36:28.803Z,97006.34
2023-08-30T14:38:56.427Z,97000.03
2023-08-30T14:41:24.078Z,97010.13
2023-08-30T14:43:52.977Z,97003.84
2023-08-30T14:46:24.312Z,96999.53
2023-08-30T14:48:52.330Z,97003.88
2023-08-30T14:51:20.116Z,96993.00
2023-08-30T14:53:47.729Z,97000.34
2023-08-30T14:56:15.328Z,96998.97
2023-08-30T14:58:43.519Z,96994.34
2023-08-30T15:01:14.440Z,96992.44
2023-08-30T15:03:42.211Z,97001.44
2023-08-30T15:06:10.136Z,96988.66
2023-08-30T15:08:37.798Z,97000.34
2023-08-30T15:11:05.599Z,96986.41
2023-08-30T15:13:33.158Z,97001.63
2023-08-30T15:16:00.687Z,96995.06
2023-08-30T15:18:29.526Z,96995.59
2023-08-30T15:20:57.213Z,97005.41
2023-08-30T15:23:24.761Z,96998.91
2023-08-30T15:25:52.347Z,96995.91
2023-08-30T15:28:20.175Z,96985.88
2023-08-30T15:30:49.731Z,96988.56
2023-08-30T15:33:54.719Z,96988.59
2023-08-30T15:36:06.881Z,96987.25
2023-08-30T15:38:35.120Z,96988.34
2023-08-30T15:41:02.511Z,96988.91
2023-08-30T15:43:30.210Z,96975.81
2023-08-30T15:45:57.787Z,96988.56
2023-08-30T15:48:25.413Z,96991.56
2023-08-30T15:50:53.079Z,96994.84
2023-08-30T15:53:21.947Z,96979.88
2023-08-30T15:55:49.584Z,96992.94
2023-08-30T15:58:17.981Z,96983.75
2023-08-30T16:00:45.619Z,96985.09
2023-08-30T16:03:13.507Z,96973.97
2023-08-30T16:05:41.337Z,96977.75
2023-08-30T16:08:09.281Z,96981.88
2023-08-30T16:10:38.534Z,96970.44
2023-08-30T16:13:06.157Z,96977.50
2023-08-30T16:15:33.798Z,96974.22
2023-08-30T16:18:01.391Z,96973.44
2023-08-30T16:20:28.956Z,96972.59
2023-08-30T16:22:56.597Z,96970.69
2023-08-30T16:25:24.222Z,96961.44
2023-08-30T16:27:53.099Z,96968.19
2023-08-30T16:30:20.838Z,96958.66
2023-08-30T16:32:48.593Z,96956.75
2023-08-30T16:35:16.164Z,96966.56
2023-08-30T16:37:43.748Z,96958.66
2023-08-30T16:40:12.018Z,96962.75
2023-08-30T16:42:39.514Z,96969.25
2023-08-30T16:45:09.960Z,96963.56
2023-08-30T16:47:51.983Z,96968.19
2023-08-30T16:50:25.917Z,96966.00
2023-08-30T16:52:53.587Z,96964.38
2023-08-30T16:55:21.802Z,96962.19
2023-08-30T16:57:49.370Z,96972.25
2023-08-30T17:00:19.975Z,96972.25
2023-08-30T17:02:48.432Z,96969.56
2023-08-30T17:05:16.191Z,96969.00
2023-08-30T17:07:44.008Z,96978.78
2023-08-30T17:10:12.347Z,96981.50
2023-08-30T17:12:39.894Z,96977.94
2023-08-30T17:15:08.461Z,96987.19
2023-08-30T17:17:37.323Z,96987.41
2023-08-30T17:20:05.661Z,96996.91
2023-08-30T17:22:33.556Z,96990.38
2023-08-30T17:25:01.127Z,96993.06
2023-08-30T17:27:28.672Z,96989.28
2023-08-30T17:29:56.400Z,96997.44
2023-08-30T17:32:24.606Z,96991.16
2023-08-30T17:34:53.605Z,96994.94
2023-08-30T17:37:21.120Z,96997.13
2023-08-30T17:39:49.087Z,96993.03
2023-08-30T17:42:16.609Z,96996.03
2023-08-30T17:44:53.872Z,97002.13
2023-08-30T17:47:25.355Z,96995.97
2023-08-30T17:49:54.339Z,96987.69
2023-08-30T17:52:22.107Z,96996.75
2023-08-30T17:54:49.654Z,96998.28
2023-08-30T17:57:17.260Z,96995.63
2023-08-30T17:59:44.975Z,96999.03
2023-08-30T18:02:13.293Z,97000.75
2023-08-30T18:04:40.892Z,97003.75
2023-08-30T18:07:09.848Z,97006.78
2023-08-30T18:09:38.756Z,97007.25
2023-08-30T18:12:08.062Z,97012.31
2023-08-30T18:14:35.595Z,97008.75
2023-08-30T18:17:03.708Z,97010.69
2023-08-30T18:19:31.463Z,97004.19
2023-08-30T18:21:59.080Z,97016.66
2023-08-30T18:24:28.200Z,97012.47
2023-08-30T18:26:57.023Z,97005.47
2023-08-30T18:29:26.786Z,97003.28
2023-08-30T18:31:54.412Z,97010.75
2023-08-30T18:34:22.308Z,97010.28
2023-08-30T18:36:49.868Z,97007.06
2023-08-30T18:39:18.166Z,97014.88
2023-08-30T18:41:47.058Z,97020.84
2023-08-30T18:44:14.614Z,97018.94
2023-08-30T18:46:42.262Z,97022.81
2023-08-30T18:49:09.775Z,97017.69
2023-08-30T18:51:37.454Z,97022.00
2023-08-30T18:54:05.813Z,97029.84
2023-08-30T18:56:34.155Z,97023.59
2023-08-30T18:59:05.241Z,97026.84
2023-08-30T19:01:33.049Z,97034.81
2023-08-30T19:04:00.764Z,97031.97
2023-08-30T19:06:29.251Z,97038.69
2023-08-30T19:08:57.017Z,97037.16
2023-08-30T19:11:24.754Z,97043.59
2023-08-30T19:13:53.355Z,97037.63
2023-08-30T19:16:22.751Z,97045.66
2023-08-30T19:18:50.431Z,97035.75
2023-08-30T19:21:20.873Z,97040.31
2023-08-30T19:23:49.727Z,97037.06
2023-08-30T19:26:18.059Z,97034.34
2023-08-30T19:28:46.188Z,97043.59
2023-08-30T19:31:13.871Z,97046.78
2023-08-30T19:33:42.844Z,97039.75
2023-08-30T19:36:10.525Z,97042.97
2023-08-30T19:38:38.422Z,97050.31
2023-08-30T19:41:05.992Z,97044.84
2023-08-30T19:43:33.634Z,97051.09
2023-08-30T19:46:02.169Z,97044.00
2023-08-30T19:48:30.108Z,97042.91
2023-08-30T19:50:59.637Z,97043.41
2023-08-30T19:53:27.287Z,97046.94
2023-08-30T19:55:56.573Z,97043.66
2023-08-30T19:58:24.197Z,97046.06
2023-08-30T20:00:52.395Z,97041.19
2023-08-30T20:03:20.908Z,97043.31
2023-08-30T20:05:50.264Z,97045.19
2023-08-30T20:08:19.735Z,97052.97
2023-08-30T20:10:48.526Z,97048.34
2023-08-30T20:13:16.395Z,97052.97
2023-08-30T20:15:44.580Z,97055.63
2023-08-30T20:18:13.338Z,97049.94
2023-08-30T20:20:42.399Z,97056.09
2023-08-30T20:23:10.995Z,97055.56
2023-08-30T20:25:40.206Z,97053.06
2023-08-30T20:28:08.995Z,97049.53
2023-08-30T20:30:36.624Z,97055.56
2023-08-30T20:33:04.318Z,97057.56
2023-08-30T20:35:31.902Z,97056.75
2023-08-30T20:37:59.465Z,97058.13
2023-08-30T20:40:27.005Z,97064.31
2023-08-30T20:42:55.910Z,97061.34
2023-08-30T20:45:23.435Z,97064.06
2023-08-30T20:47:51.041Z,97069.53
2023-08-30T20:50:18.713Z,97065.69
2023-08-30T20:52:47.208Z,97067.59
2023-08-30T20:55:19.120Z,97063.69
2023-08-30T20:57:49.089Z,97065.50
2023-08-30T21:00:18.661Z,97072.72
2023-08-30T21:02:46.264Z,97068.63
2023-08-30T21:05:13.902Z,97066.16
2023-08-30T21:07:41.531Z,97067.44
2023-08-30T21:10:09.751Z,97064.97
2023-08-30T21:12:38.940Z,97063.16
2023-08-30T21:15:09.345Z,97069.06
2023-08-30T21:17:39.192Z,97066.38
2023-08-30T21:20:08.658Z,97066.91
2023-08-30T21:22:36.849Z,97071.28
2023-08-30T21:25:07.248Z,97076.13
2023-08-30T21:27:34.834Z,97124.63
2023-08-30T21:30:03.288Z,97107.97
2023-08-30T21:32:30.835Z,97121.66
2023-08-30T21:35:00.041Z,97126.41
2023-08-30T21:37:28.638Z,97139.16
2023-08-30T21:39:56.243Z,97150.66
2023-08-30T21:42:23.788Z,97158.31
2023-08-30T21:44:51.339Z,97161.34
2023-08-30T21:47:18.853Z,97175.56
2023-08-30T21:49:46.523Z,97176.88
2023-08-30T21:52:15.409Z,97184.75
2023-08-30T21:54:43.444Z,97185.19
2023-08-30T21:57:11.219Z,97189.16
2023-08-30T21:59:38.914Z,97195.75
2023-08-30T22:02:06.527Z,97190.34
2023-08-30T22:04:34.286Z,97174.16
2023-08-30T22:07:05.721Z,97174.25
2023-08-30T22:09:34.847Z,97172.53
2023-08-30T22:12:02.884Z,97160.25
2023-08-30T22:14:36.253Z,97153.13
2023-08-30T22:17:04.714Z,97163.66
2023-08-30T22:19:32.273Z,97152.06
2023-08-30T22:21:59.799Z,97143.44
2023-08-30T22:24:27.440Z,97148.56
2023-08-30T22:26:56.743Z,97140.34
2023-08-30T22:29:24.480Z,97133.22
2023-08-30T22:31:52.538Z,97134.03
2023-08-30T22:34:20.169Z,97130.09
2023-08-30T22:36:47.791Z,97129.72
2023-08-30T22:39:15.401Z,97124.22
2023-08-30T22:41:42.955Z,97128.63
2023-08-30T22:44:11.943Z,97118.44
2023-08-30T22:46:39.534Z,97122.28
2023-08-30T22:49:07.208Z,97121.81
2023-08-30T22:51:44.250Z,97126.56
2023-08-30T22:54:16.881Z,97130.41
2023-08-30T22:56:45.295Z,97132.13
2023-08-30T22:59:14.169Z,97122.13
2023-08-30T23:01:41.784Z,97124.84
2023-08-30T23:04:09.644Z,97120.41
2023-08-30T23:06:37.257Z,97123.94
2023-08-30T23:09:05.394Z,97137.56
2023-08-30T23:11:33.017Z,97140.28
2023-08-30T23:14:02.213Z,97133.81
2023-08-30T23:16:32.076Z,97133.38
2023-08-30T23:18:59.686Z,97145.69
2023-08-30T23:21:27.324Z,97154.63
2023-08-30T23:23:54.839Z,97151.75
2023-08-30T23:26:22.395Z,97137.56
2023-08-30T23:28:50.332Z,97134.31
2023-08-30T23:31:18.699Z,97145.19
2023-08-30T23:33:48.437Z,97155.44
2023-08-30T23:36:16.314Z,97138.56
2023-08-30T23:38:47.352Z,97147.97
2023-08-30T23:41:15.232Z,97142.09
2023-08-30T23:43:42.836Z,97137.25
2023-08-30T23:46:10.394Z,97155.63
2023-08-30T23:48:38.046Z,97160.34
2023-08-30T23:51:06.997Z,97163.66
2023-08-30T23:53:34.575Z,97166.09
2023-08-30T23:56:03.229Z,97169.78
2023-08-30T23:58:30.808Z,97171.16
